sensor_id;sensor_type;location;lat;lon;timestamp;temperature;humidity
17364;DHT22;8799;43.594;13.526;2023-06-22T00:01:25;27.50;90.40
17364;DHT22;8799;43.594;13.526;2023-06-22T00:04:20;27.50;90.70
17364;DHT22;8799;43.594;13.526;2023-06-22T00:06:48;27.50;90.90
17364;DHT22;8799;43.594;13.526;2023-06-22T00:09:16;27.60;91.10
17364;DHT22;8799;43.594;13.526;2023-06-22T00:11:44;27.50;91.40
17364;DHT22;8799;43.594;13.526;2023-06-22T00:14:13;27.50;91.90
17364;DHT22;8799;43.594;13.526;2023-06-22T00:16:41;27.50;92.10
17364;DHT22;8799;43.594;13.526;2023-06-22T00:19:10;27.50;92.30
17364;DHT22;8799;43.594;13.526;2023-06-22T00:21:38;27.50;92.30
17364;DHT22;8799;43.594;13.526;2023-06-22T00:24:07;27.50;92.40
17364;DHT22;8799;43.594;13.526;2023-06-22T00:26:35;27.50;92.60
17364;DHT22;8799;43.594;13.526;2023-06-22T00:29:02;27.50;92.70
17364;DHT22;8799;43.594;13.526;2023-06-22T00:31:31;27.50;92.60
17364;DHT22;8799;43.594;13.526;2023-06-22T00:33:59;27.50;92.50
17364;DHT22;8799;43.594;13.526;2023-06-22T00:36:27;27.50;92.20
17364;DHT22;8799;43.594;13.526;2023-06-22T00:38:55;27.50;92.10
17364;DHT22;8799;43.594;13.526;2023-06-22T00:41:23;27.50;91.90
17364;DHT22;8799;43.594;13.526;2023-06-22T00:43:54;27.40;91.80
17364;DHT22;8799;43.594;13.526;2023-06-22T00:46:22;27.40;91.60
17364;DHT22;8799;43.594;13.526;2023-06-22T00:48:52;27.40;91.50
17364;DHT22;8799;43.594;13.526;2023-06-22T00:51:23;27.40;91.70
17364;DHT22;8799;43.594;13.526;2023-06-22T00:53:51;27.40;91.70
17364;DHT22;8799;43.594;13.526;2023-06-22T00:56:19;27.40;91.70
17364;DHT22;8799;43.594;13.526;2023-06-22T00:58:50;27.40;91.90
17364;DHT22;8799;43.594;13.526;2023-06-22T01:01:20;27.40;92.00
17364;DHT22;8799;43.594;13.526;2023-06-22T01:03:52;27.40;92.00
17364;DHT22;8799;43.594;13.526;2023-06-22T01:06:26;27.30;92.10
17364;DHT22;8799;43.594;13.526;2023-06-22T01:09:02;27.30;92.20
17364;DHT22;8799;43.594;13.526;2023-06-22T01:11:38;27.30;92.20
17364;DHT22;8799;43.594;13.526;2023-06-22T01:14:14;27.30;92.20
17364;DHT22;8799;43.594;13.526;2023-06-22T01:16:44;27.30;92.20
17364;DHT22;8799;43.594;13.526;2023-06-22T01:19:26;27.30;92.40
17364;DHT22;8799;43.594;13.526;2023-06-22T01:21:56;27.20;92.40
17364;DHT22;8799;43.594;13.526;2023-06-22T01:24:28;27.20;92.50
17364;DHT22;8799;43.594;13.526;2023-06-22T01:27:05;27.20;92.70
17364;DHT22;8799;43.594;13.526;2023-06-22T01:29:38;27.20;92.70
17364;DHT22;8799;43.594;13.526;2023-06-22T01:32:07;27.20;92.80
17364;DHT22;8799;43.594;13.526;2023-06-22T01:34:37;27.20;92.90
17364;DHT22;8799;43.594;13.526;2023-06-22T01:37:06;27.20;93.00
17364;DHT22;8799;43.594;13.526;2023-06-22T01:39:35;27.20;93.10
17364;DHT22;8799;43.594;13.526;2023-06-22T01:42:04;27.10;93.20
17364;DHT22;8799;43.594;13.526;2023-06-22T01:44:32;27.10;93.20
17364;DHT22;8799;43.594;13.526;2023-06-22T01:47:03;27.10;93.30
17364;DHT22;8799;43.594;13.526;2023-06-22T01:49:31;27.10;93.30
17364;DHT22;8799;43.594;13.526;2023-06-22T01:51:59;27.10;93.40
17364;DHT22;8799;43.594;13.526;2023-06-22T01:54:27;27.10;93.50
17364;DHT22;8799;43.594;13.526;2023-06-22T01:56:55;27.10;93.60
17364;DHT22;8799;43.594;13.526;2023-06-22T01:59:26;27.10;93.70
17364;DHT22;8799;43.594;13.526;2023-06-22T02:02:00;27.10;93.80
17364;DHT22;8799;43.594;13.526;2023-06-22T02:04:36;27.00;93.70
17364;DHT22;8799;43.594;13.526;2023-06-22T02:07:10;27.00;93.70
17364;DHT22;8799;43.594;13.526;2023-06-22T02:09:41;27.00;93.70
17364;DHT22;8799;43.594;13.526;2023-06-22T02:12:12;27.00;93.50
17364;DHT22;8799;43.594;13.526;2023-06-22T02:14:41;27.00;93.30
17364;DHT22;8799;43.594;13.526;2023-06-22T02:17:09;27.00;93.10
17364;DHT22;8799;43.594;13.526;2023-06-22T02:19:41;27.00;93.10
17364;DHT22;8799;43.594;13.526;2023-06-22T02:22:09;27.00;93.10
17364;DHT22;8799;43.594;13.526;2023-06-22T02:24:38;27.00;93.30
17364;DHT22;8799;43.594;13.526;2023-06-22T02:27:07;27.00;93.50
17364;DHT22;8799;43.594;13.526;2023-06-22T02:29:34;27.00;93.60
17364;DHT22;8799;43.594;13.526;2023-06-22T02:32:02;27.00;93.70
17364;DHT22;8799;43.594;13.526;2023-06-22T02:34:31;27.00;93.70
17364;DHT22;8799;43.594;13.526;2023-06-22T02:37:01;27.00;93.60
17364;DHT22;8799;43.594;13.526;2023-06-22T02:39:28;27.00;93.70
17364;DHT22;8799;43.594;13.526;2023-06-22T02:41:56;27.00;93.70
17364;DHT22;8799;43.594;13.526;2023-06-22T02:44:24;27.00;93.60
17364;DHT22;8799;43.594;13.526;2023-06-22T02:46:52;27.00;93.60
17364;DHT22;8799;43.594;13.526;2023-06-22T02:49:20;27.00;93.60
17364;DHT22;8799;43.594;13.526;2023-06-22T02:51:48;27.00;93.60
17364;DHT22;8799;43.594;13.526;2023-06-22T02:54:17;27.00;93.60
17364;DHT22;8799;43.594;13.526;2023-06-22T02:56:45;27.00;93.70
17364;DHT22;8799;43.594;13.526;2023-06-22T02:59:13;27.00;93.70
17364;DHT22;8799;43.594;13.526;2023-06-22T03:01:42;27.00;93.80
17364;DHT22;8799;43.594;13.526;2023-06-22T03:04:09;27.10;93.90
17364;DHT22;8799;43.594;13.526;2023-06-22T03:06:37;27.10;93.80
17364;DHT22;8799;43.594;13.526;2023-06-22T03:09:07;27.10;93.70
17364;DHT22;8799;43.594;13.526;2023-06-22T03:11:37;27.10;93.70
17364;DHT22;8799;43.594;13.526;2023-06-22T03:14:05;27.10;93.70
17364;DHT22;8799;43.594;13.526;2023-06-22T03:16:32;27.10;93.60
17364;DHT22;8799;43.594;13.526;2023-06-22T03:19:00;27.10;93.60
17364;DHT22;8799;43.594;13.526;2023-06-22T03:21:28;27.10;93.50
17364;DHT22;8799;43.594;13.526;2023-06-22T03:23:56;27.10;93.40
17364;DHT22;8799;43.594;13.526;2023-06-22T03:26:24;27.20;93.40
17364;DHT22;8799;43.594;13.526;2023-06-22T03:28:54;27.20;93.20
17364;DHT22;8799;43.594;13.526;2023-06-22T03:31:22;27.10;93.20
17364;DHT22;8799;43.594;13.526;2023-06-22T03:33:50;27.20;93.20
17364;DHT22;8799;43.594;13.526;2023-06-22T03:36:18;27.10;93.20
17364;DHT22;8799;43.594;13.526;2023-06-22T03:38:46;27.10;93.20
17364;DHT22;8799;43.594;13.526;2023-06-22T03:41:15;27.10;93.20
17364;DHT22;8799;43.594;13.526;2023-06-22T03:43:43;27.10;93.10
17364;DHT22;8799;43.594;13.526;2023-06-22T03:46:12;27.10;93.10
17364;DHT22;8799;43.594;13.526;2023-06-22T03:48:40;27.20;93.10
17364;DHT22;8799;43.594;13.526;2023-06-22T03:51:07;27.10;93.10
17364;DHT22;8799;43.594;13.526;2023-06-22T03:53:35;27.10;93.20
17364;DHT22;8799;43.594;13.526;2023-06-22T03:56:03;27.10;93.20
17364;DHT22;8799;43.594;13.526;2023-06-22T03:58:31;27.10;93.00
17364;DHT22;8799;43.594;13.526;2023-06-22T04:00:59;27.20;92.80
17364;DHT22;8799;43.594;13.526;2023-06-22T04:03:33;27.20;92.50
17364;DHT22;8799;43.594;13.526;2023-06-22T04:06:01;27.20;92.50
17364;DHT22;8799;43.594;13.526;2023-06-22T04:08:29;27.20;92.60
17364;DHT22;8799;43.594;13.526;2023-06-22T04:10:57;27.20;92.60
17364;DHT22;8799;43.594;13.526;2023-06-22T04:13:25;27.20;92.50
17364;DHT22;8799;43.594;13.526;2023-06-22T04:15:52;27.20;92.40
17364;DHT22;8799;43.594;13.526;2023-06-22T04:18:20;27.20;92.30
17364;DHT22;8799;43.594;13.526;2023-06-22T04:20:49;27.20;92.20
17364;DHT22;8799;43.594;13.526;2023-06-22T04:23:17;27.20;92.00
17364;DHT22;8799;43.594;13.526;2023-06-22T04:25:45;27.20;91.90
17364;DHT22;8799;43.594;13.526;2023-06-22T04:28:13;27.20;91.70
17364;DHT22;8799;43.594;13.526;2023-06-22T04:30:41;27.20;91.50
17364;DHT22;8799;43.594;13.526;2023-06-22T04:33:12;27.20;91.50
17364;DHT22;8799;43.594;13.526;2023-06-22T04:35:40;27.20;91.30
17364;DHT22;8799;43.594;13.526;2023-06-22T04:38:12;27.20;91.10
17364;DHT22;8799;43.594;13.526;2023-06-22T04:40:40;27.20;91.10
17364;DHT22;8799;43.594;13.526;2023-06-22T04:43:08;27.20;91.20
17364;DHT22;8799;43.594;13.526;2023-06-22T04:45:36;27.20;91.10
17364;DHT22;8799;43.594;13.526;2023-06-22T04:48:05;27.10;91.30
17364;DHT22;8799;43.594;13.526;2023-06-22T04:50:32;27.10;91.50
17364;DHT22;8799;43.594;13.526;2023-06-22T04:53:00;27.00;91.70
17364;DHT22;8799;43.594;13.526;2023-06-22T04:55:32;27.00;91.80
17364;DHT22;8799;43.594;13.526;2023-06-22T04:58:00;27.00;91.70
17364;DHT22;8799;43.594;13.526;2023-06-22T05:00:31;26.90;91.40
17364;DHT22;8799;43.594;13.526;2023-06-22T05:03:02;26.90;91.80
17364;DHT22;8799;43.594;13.526;2023-06-22T05:05:32;26.80;92.10
17364;DHT22;8799;43.594;13.526;2023-06-22T05:08:01;26.80;92.50
17364;DHT22;8799;43.594;13.526;2023-06-22T05:10:28;26.70;92.80
17364;DHT22;8799;43.594;13.526;2023-06-22T05:12:58;26.60;93.00
17364;DHT22;8799;43.594;13.526;2023-06-22T05:15:25;26.70;92.90
17364;DHT22;8799;43.594;13.526;2023-06-22T05:17:56;26.60;92.90
17364;DHT22;8799;43.594;13.526;2023-06-22T05:20:24;26.60;93.30
17364;DHT22;8799;43.594;13.526;2023-06-22T05:22:51;26.60;93.50
17364;DHT22;8799;43.594;13.526;2023-06-22T05:25:19;26.50;94.10
17364;DHT22;8799;43.594;13.526;2023-06-22T05:27:47;26.50;94.50
17364;DHT22;8799;43.594;13.526;2023-06-22T05:30:19;26.40;94.50
17364;DHT22;8799;43.594;13.526;2023-06-22T05:32:47;26.40;95.20
17364;DHT22;8799;43.594;13.526;2023-06-22T05:35:15;26.40;95.80
17364;DHT22;8799;43.594;13.526;2023-06-22T05:37:42;26.40;95.70
17364;DHT22;8799;43.594;13.526;2023-06-22T05:40:11;26.30;95.90
17364;DHT22;8799;43.594;13.526;2023-06-22T05:42:39;26.30;96.00
17364;DHT22;8799;43.594;13.526;2023-06-22T05:45:08;27.10;96.50
17364;DHT22;8799;43.594;13.526;2023-06-22T05:47:38;26.30;95.80
17364;DHT22;8799;43.594;13.526;2023-06-22T05:50:07;26.30;95.30
17364;DHT22;8799;43.594;13.526;2023-06-22T05:52:34;26.40;95.10
17364;DHT22;8799;43.594;13.526;2023-06-22T05:55:03;26.40;95.00
17364;DHT22;8799;43.594;13.526;2023-06-22T05:57:30;26.40;95.00
17364;DHT22;8799;43.594;13.526;2023-06-22T05:59:58;26.40;95.00
17364;DHT22;8799;43.594;13.526;2023-06-22T06:02:25;26.40;95.20
17364;DHT22;8799;43.594;13.526;2023-06-22T06:04:55;26.40;95.00
17364;DHT22;8799;43.594;13.526;2023-06-22T06:07:22;26.40;94.50
17364;DHT22;8799;43.594;13.526;2023-06-22T06:09:50;26.40;94.30
17364;DHT22;8799;43.594;13.526;2023-06-22T06:12:18;26.40;94.50
17364;DHT22;8799;43.594;13.526;2023-06-22T06:14:46;26.40;94.70
17364;DHT22;8799;43.594;13.526;2023-06-22T06:17:13;26.40;95.10
17364;DHT22;8799;43.594;13.526;2023-06-22T06:19:41;26.50;95.50
17364;DHT22;8799;43.594;13.526;2023-06-22T06:22:10;26.50;95.80
17364;DHT22;8799;43.594;13.526;2023-06-22T06:24:38;26.50;96.00
17364;DHT22;8799;43.594;13.526;2023-06-22T06:27:06;26.50;96.10
17364;DHT22;8799;43.594;13.526;2023-06-22T06:29:33;26.60;96.00
17364;DHT22;8799;43.594;13.526;2023-06-22T06:32:01;26.60;96.00
17364;DHT22;8799;43.594;13.526;2023-06-22T06:34:29;26.60;95.90
17364;DHT22;8799;43.594;13.526;2023-06-22T06:36:57;26.60;95.90
17364;DHT22;8799;43.594;13.526;2023-06-22T06:39:26;26.60;96.00
17364;DHT22;8799;43.594;13.526;2023-06-22T06:41:54;26.60;96.20
17364;DHT22;8799;43.594;13.526;2023-06-22T06:44:22;26.70;96.20
17364;DHT22;8799;43.594;13.526;2023-06-22T06:46:50;26.60;96.20
17364;DHT22;8799;43.594;13.526;2023-06-22T06:49:20;26.70;96.30
17364;DHT22;8799;43.594;13.526;2023-06-22T06:51:47;26.70;96.50
17364;DHT22;8799;43.594;13.526;2023-06-22T06:54:16;26.70;96.40
17364;DHT22;8799;43.594;13.526;2023-06-22T06:56:48;26.70;96.50
17364;DHT22;8799;43.594;13.526;2023-06-22T06:59:15;26.70;96.50
17364;DHT22;8799;43.594;13.526;2023-06-22T07:01:43;26.70;96.70
17364;DHT22;8799;43.594;13.526;2023-06-22T07:04:11;26.70;96.90
17364;DHT22;8799;43.594;13.526;2023-06-22T07:06:39;26.70;96.90
17364;DHT22;8799;43.594;13.526;2023-06-22T07:09:06;26.80;96.90
17364;DHT22;8799;43.594;13.526;2023-06-22T07:11:35;26.80;96.90
17364;DHT22;8799;43.594;13.526;2023-06-22T07:14:05;26.80;97.00
17364;DHT22;8799;43.594;13.526;2023-06-22T07:16:33;26.80;96.80
17364;DHT22;8799;43.594;13.526;2023-06-22T07:19:01;26.80;96.40
17364;DHT22;8799;43.594;13.526;2023-06-22T07:21:28;26.80;96.00
17364;DHT22;8799;43.594;13.526;2023-06-22T07:23:56;26.90;95.40
17364;DHT22;8799;43.594;13.526;2023-06-22T07:26:24;26.90;94.90
17364;DHT22;8799;43.594;13.526;2023-06-22T07:28:52;26.80;94.50
17364;DHT22;8799;43.594;13.526;2023-06-22T07:31:23;26.90;93.80
17364;DHT22;8799;43.594;13.526;2023-06-22T07:33:51;26.90;92.80
17364;DHT22;8799;43.594;13.526;2023-06-22T07:36:18;26.90;92.20
17364;DHT22;8799;43.594;13.526;2023-06-22T07:38:46;26.90;92.10
17364;DHT22;8799;43.594;13.526;2023-06-22T07:41:13;26.90;91.90
17364;DHT22;8799;43.594;13.526;2023-06-22T07:43:45;27.00;92.80
17364;DHT22;8799;43.594;13.526;2023-06-22T07:46:16;27.00;93.30
17364;DHT22;8799;43.594;13.526;2023-06-22T07:48:46;26.90;92.70
17364;DHT22;8799;43.594;13.526;2023-06-22T07:51:14;27.00;93.10
17364;DHT22;8799;43.594;13.526;2023-06-22T07:53:43;27.00;93.00
17364;DHT22;8799;43.594;13.526;2023-06-22T07:56:11;27.00;92.70
17364;DHT22;8799;43.594;13.526;2023-06-22T07:58:38;27.00;92.40
17364;DHT22;8799;43.594;13.526;2023-06-22T08:01:06;27.00;92.00
17364;DHT22;8799;43.594;13.526;2023-06-22T08:03:34;27.00;91.50
17364;DHT22;8799;43.594;13.526;2023-06-22T08:06:04;27.00;91.10
17364;DHT22;8799;43.594;13.526;2023-06-22T08:08:34;27.10;90.90
17364;DHT22;8799;43.594;13.526;2023-06-22T08:11:02;27.10;90.20
17364;DHT22;8799;43.594;13.526;2023-06-22T08:13:29;27.10;89.80
17364;DHT22;8799;43.594;13.526;2023-06-22T08:15:57;27.10;89.60
17364;DHT22;8799;43.594;13.526;2023-06-22T08:18:25;27.20;89.30
17364;DHT22;8799;43.594;13.526;2023-06-22T08:20:53;27.10;89.10
17364;DHT22;8799;43.594;13.526;2023-06-22T08:23:22;27.20;88.80
17364;DHT22;8799;43.594;13.526;2023-06-22T08:25:50;27.20;88.50
17364;DHT22;8799;43.594;13.526;2023-06-22T08:28:18;27.20;88.10
17364;DHT22;8799;43.594;13.526;2023-06-22T08:30:46;27.20;87.70
17364;DHT22;8799;43.594;13.526;2023-06-22T08:33:14;27.20;87.50
17364;DHT22;8799;43.594;13.526;2023-06-22T08:35:42;27.20;87.30
17364;DHT22;8799;43.594;13.526;2023-06-22T08:38:10;27.20;87.10
17364;DHT22;8799;43.594;13.526;2023-06-22T08:40:43;27.30;87.10
17364;DHT22;8799;43.594;13.526;2023-06-22T08:43:11;27.30;87.10
17364;DHT22;8799;43.594;13.526;2023-06-22T08:45:38;27.30;87.00
17364;DHT22;8799;43.594;13.526;2023-06-22T08:48:06;27.30;87.00
17364;DHT22;8799;43.594;13.526;2023-06-22T08:50:34;27.30;86.90
17364;DHT22;8799;43.594;13.526;2023-06-22T08:53:02;27.30;86.70
17364;DHT22;8799;43.594;13.526;2023-06-22T08:55:30;27.30;86.30
17364;DHT22;8799;43.594;13.526;2023-06-22T08:58:00;27.40;86.50
17364;DHT22;8799;43.594;13.526;2023-06-22T09:00:28;27.40;86.90
17364;DHT22;8799;43.594;13.526;2023-06-22T09:02:58;27.40;87.30
17364;DHT22;8799;43.594;13.526;2023-06-22T09:05:30;27.40;87.40
17364;DHT22;8799;43.594;13.526;2023-06-22T09:07:58;27.40;87.20
17364;DHT22;8799;43.594;13.526;2023-06-22T09:10:25;27.40;87.30
17364;DHT22;8799;43.594;13.526;2023-06-22T09:12:53;27.40;87.40
17364;DHT22;8799;43.594;13.526;2023-06-22T09:15:23;27.40;87.60
17364;DHT22;8799;43.594;13.526;2023-06-22T09:17:50;27.50;87.70
17364;DHT22;8799;43.594;13.526;2023-06-22T09:20:20;27.50;87.70
17364;DHT22;8799;43.594;13.526;2023-06-22T09:22:47;27.50;88.00
17364;DHT22;8799;43.594;13.526;2023-06-22T09:25:15;27.50;88.20
17364;DHT22;8799;43.594;13.526;2023-06-22T09:27:47;27.60;88.50
17364;DHT22;8799;43.594;13.526;2023-06-22T09:30:15;27.50;88.60
17364;DHT22;8799;43.594;13.526;2023-06-22T09:32:44;27.60;88.50
17364;DHT22;8799;43.594;13.526;2023-06-22T09:35:13;27.60;88.10
17364;DHT22;8799;43.594;13.526;2023-06-22T09:37:40;27.60;87.50
17364;DHT22;8799;43.594;13.526;2023-06-22T09:40:08;27.70;87.70
17364;DHT22;8799;43.594;13.526;2023-06-22T09:42:37;27.70;88.20
17364;DHT22;8799;43.594;13.526;2023-06-22T09:45:05;27.70;89.30
17364;DHT22;8799;43.594;13.526;2023-06-22T09:47:33;27.70;90.20
17364;DHT22;8799;43.594;13.526;2023-06-22T09:50:07;27.70;89.90
17364;DHT22;8799;43.594;13.526;2023-06-22T09:52:35;27.80;89.30
17364;DHT22;8799;43.594;13.526;2023-06-22T09:55:04;27.80;88.90
17364;DHT22;8799;43.594;13.526;2023-06-22T09:57:31;27.80;88.80
17364;DHT22;8799;43.594;13.526;2023-06-22T09:59:59;27.80;88.80
17364;DHT22;8799;43.594;13.526;2023-06-22T10:02:27;27.80;88.70
17364;DHT22;8799;43.594;13.526;2023-06-22T10:04:55;27.80;88.70
17364;DHT22;8799;43.594;13.526;2023-06-22T10:07:24;27.80;89.70
17364;DHT22;8799;43.594;13.526;2023-06-22T10:09:52;27.90;90.80
17364;DHT22;8799;43.594;13.526;2023-06-22T10:12:20;27.90;91.40
17364;DHT22;8799;43.594;13.526;2023-06-22T10:14:48;27.90;91.70
17364;DHT22;8799;43.594;13.526;2023-06-22T10:17:16;27.90;91.10
17364;DHT22;8799;43.594;13.526;2023-06-22T10:19:48;27.90;91.30
17364;DHT22;8799;43.594;13.526;2023-06-22T10:22:16;27.90;91.30
17364;DHT22;8799;43.594;13.526;2023-06-22T10:24:45;27.90;91.20
17364;DHT22;8799;43.594;13.526;2023-06-22T10:27:13;27.90;91.20
17364;DHT22;8799;43.594;13.526;2023-06-22T10:29:41;27.90;91.30
17364;DHT22;8799;43.594;13.526;2023-06-22T10:32:09;27.90;91.20
17364;DHT22;8799;43.594;13.526;2023-06-22T10:34:36;27.90;90.60
17364;DHT22;8799;43.594;13.526;2023-06-22T10:37:04;27.90;90.00
17364;DHT22;8799;43.594;13.526;2023-06-22T10:39:33;27.90;89.20
17364;DHT22;8799;43.594;13.526;2023-06-22T10:42:02;27.90;88.70
17364;DHT22;8799;43.594;13.526;2023-06-22T10:44:31;27.90;88.40
17364;DHT22;8799;43.594;13.526;2023-06-22T10:46:59;27.90;88.20
17364;DHT22;8799;43.594;13.526;2023-06-22T10:49:26;27.90;88.00
17364;DHT22;8799;43.594;13.526;2023-06-22T10:51:54;27.90;88.00
17364;DHT22;8799;43.594;13.526;2023-06-22T10:54:22;27.90;87.90
17364;DHT22;8799;43.594;13.526;2023-06-22T10:56:50;27.90;87.70
17364;DHT22;8799;43.594;13.526;2023-06-22T10:59:20;27.90;86.40
17364;DHT22;8799;43.594;13.526;2023-06-22T11:01:49;28.00;86.30
17364;DHT22;8799;43.594;13.526;2023-06-22T11:04:17;28.00;85.70
17364;DHT22;8799;43.594;13.526;2023-06-22T11:06:45;28.10;85.60
17364;DHT22;8799;43.594;13.526;2023-06-22T11:09:12;28.10;85.70
17364;DHT22;8799;43.594;13.526;2023-06-22T11:11:44;28.10;85.80
17364;DHT22;8799;43.594;13.526;2023-06-22T11:14:12;28.10;85.90
17364;DHT22;8799;43.594;13.526;2023-06-22T11:16:41;28.10;86.10
17364;DHT22;8799;43.594;13.526;2023-06-22T11:19:13;28.10;86.30
17364;DHT22;8799;43.594;13.526;2023-06-22T11:21:40;28.10;86.50
17364;DHT22;8799;43.594;13.526;2023-06-22T11:24:08;28.10;86.70
17364;DHT22;8799;43.594;13.526;2023-06-22T11:29:18;28.20;86.30
17364;DHT22;8799;43.594;13.526;2023-06-22T11:31:48;28.00;86.00
17364;DHT22;8799;43.594;13.526;2023-06-22T11:34:16;28.00;85.80
17364;DHT22;8799;43.594;13.526;2023-06-22T11:36:44;28.00;85.70
17364;DHT22;8799;43.594;13.526;2023-06-22T11:39:13;28.00;85.40
17364;DHT22;8799;43.594;13.526;2023-06-22T11:41:41;28.00;85.20
17364;DHT22;8799;43.594;13.526;2023-06-22T11:44:09;28.00;85.20
17364;DHT22;8799;43.594;13.526;2023-06-22T11:46:40;28.10;85.20
17364;DHT22;8799;43.594;13.526;2023-06-22T11:49:10;28.10;85.20
17364;DHT22;8799;43.594;13.526;2023-06-22T11:51:42;28.10;85.10
17364;DHT22;8799;43.594;13.526;2023-06-22T11:54:10;28.10;84.80
17364;DHT22;8799;43.594;13.526;2023-06-22T11:56:38;28.10;84.80
17364;DHT22;8799;43.594;13.526;2023-06-22T11:59:05;28.10;84.70
17364;DHT22;8799;43.594;13.526;2023-06-22T12:01:33;28.10;84.60
17364;DHT22;8799;43.594;13.526;2023-06-22T12:04:01;28.10;84.50
17364;DHT22;8799;43.594;13.526;2023-06-22T12:06:32;28.10;84.30
17364;DHT22;8799;43.594;13.526;2023-06-22T12:09:02;28.10;84.40
17364;DHT22;8799;43.594;13.526;2023-06-22T12:11:30;28.10;84.30
17364;DHT22;8799;43.594;13.526;2023-06-22T12:13:58;28.10;84.20
17364;DHT22;8799;43.594;13.526;2023-06-22T12:16:29;28.10;84.10
17364;DHT22;8799;43.594;13.526;2023-06-22T12:18:57;28.10;84.10
17364;DHT22;8799;43.594;13.526;2023-06-22T12:21:25;28.10;84.00
17364;DHT22;8799;43.594;13.526;2023-06-22T12:23:54;28.10;84.20
17364;DHT22;8799;43.594;13.526;2023-06-22T12:26:22;28.10;84.30
17364;DHT22;8799;43.594;13.526;2023-06-22T12:28:50;28.10;84.50
17364;DHT22;8799;43.594;13.526;2023-06-22T12:31:17;28.10;84.70
17364;DHT22;8799;43.594;13.526;2023-06-22T12:33:46;28.10;85.00
17364;DHT22;8799;43.594;13.526;2023-06-22T12:36:13;28.10;85.00
17364;DHT22;8799;43.594;13.526;2023-06-22T12:38:42;28.10;84.60
17364;DHT22;8799;43.594;13.526;2023-06-22T12:41:11;28.10;84.40
17364;DHT22;8799;43.594;13.526;2023-06-22T12:43:41;28.10;84.30
17364;DHT22;8799;43.594;13.526;2023-06-22T12:46:08;28.10;84.20
17364;DHT22;8799;43.594;13.526;2023-06-22T12:48:42;28.20;84.10
17364;DHT22;8799;43.594;13.526;2023-06-22T12:51:10;28.10;84.00
17364;DHT22;8799;43.594;13.526;2023-06-22T12:53:38;28.20;84.00
17364;DHT22;8799;43.594;13.526;2023-06-22T12:56:05;28.20;84.20
17364;DHT22;8799;43.594;13.526;2023-06-22T12:58:35;28.20;84.30
17364;DHT22;8799;43.594;13.526;2023-06-22T13:01:04;28.20;84.40
17364;DHT22;8799;43.594;13.526;2023-06-22T13:03:32;28.20;84.70
17364;DHT22;8799;43.594;13.526;2023-06-22T13:06:00;28.20;84.70
17364;DHT22;8799;43.594;13.526;2023-06-22T13:08:29;28.20;84.50
17364;DHT22;8799;43.594;13.526;2023-06-22T13:10:57;28.20;84.40
17364;DHT22;8799;43.594;13.526;2023-06-22T13:13:30;28.20;84.30
17364;DHT22;8799;43.594;13.526;2023-06-22T13:15:59;28.30;84.10
17364;DHT22;8799;43.594;13.526;2023-06-22T13:18:27;28.30;84.10
17364;DHT22;8799;43.594;13.526;2023-06-22T13:20:56;28.30;84.40
17364;DHT22;8799;43.594;13.526;2023-06-22T13:23:23;28.40;84.70
17364;DHT22;8799;43.594;13.526;2023-06-22T13:25:51;28.40;84.80
17364;DHT22;8799;43.594;13.526;2023-06-22T13:28:19;28.40;85.00
17364;DHT22;8799;43.594;13.526;2023-06-22T13:30:47;28.40;84.80
17364;DHT22;8799;43.594;13.526;2023-06-22T13:33:17;28.40;84.60
17364;DHT22;8799;43.594;13.526;2023-06-22T13:35:45;28.40;84.20
17364;DHT22;8799;43.594;13.526;2023-06-22T13:38:12;28.40;84.10
17364;DHT22;8799;43.594;13.526;2023-06-22T13:40:40;28.50;83.90
17364;DHT22;8799;43.594;13.526;2023-06-22T13:43:08;28.50;83.80
17364;DHT22;8799;43.594;13.526;2023-06-22T13:45:37;28.50;83.90
17364;DHT22;8799;43.594;13.526;2023-06-22T13:48:06;28.50;84.10
17364;DHT22;8799;43.594;13.526;2023-06-22T13:50:36;28.50;84.30
17364;DHT22;8799;43.594;13.526;2023-06-22T13:53:04;28.50;84.10
17364;DHT22;8799;43.594;13.526;2023-06-22T13:55:32;28.50;83.70
17364;DHT22;8799;43.594;13.526;2023-06-22T13:58:00;28.50;83.20
17364;DHT22;8799;43.594;13.526;2023-06-22T14:00:28;28.50;83.00
17364;DHT22;8799;43.594;13.526;2023-06-22T14:02:56;28.50;83.10
17364;DHT22;8799;43.594;13.526;2023-06-22T14:05:25;28.50;83.20
17364;DHT22;8799;43.594;13.526;2023-06-22T14:07:54;28.50;83.50
17364;DHT22;8799;43.594;13.526;2023-06-22T14:10:22;28.60;83.70
17364;DHT22;8799;43.594;13.526;2023-06-22T14:12:51;28.60;83.90
17364;DHT22;8799;43.594;13.526;2023-06-22T14:15:20;28.60;83.90
17364;DHT22;8799;43.594;13.526;2023-06-22T14:17:48;28.60;84.00
17364;DHT22;8799;43.594;13.526;2023-06-22T14:20:16;28.60;84.40
17364;DHT22;8799;43.594;13.526;2023-06-22T14:22:45;28.70;84.70
17364;DHT22;8799;43.594;13.526;2023-06-22T14:25:14;28.70;84.40
17364;DHT22;8799;43.594;13.526;2023-06-22T14:27:42;28.70;84.30
17364;DHT22;8799;43.594;13.526;2023-06-22T14:30:10;28.80;84.60
17364;DHT22;8799;43.594;13.526;2023-06-22T14:32:38;28.80;85.00
17364;DHT22;8799;43.594;13.526;2023-06-22T14:35:07;28.80;84.60
17364;DHT22;8799;43.594;13.526;2023-06-22T14:37:36;28.70;84.70
17364;DHT22;8799;43.594;13.526;2023-06-22T14:40:05;28.80;84.90
17364;DHT22;8799;43.594;13.526;2023-06-22T14:42:35;28.70;85.00
17364;DHT22;8799;43.594;13.526;2023-06-22T14:45:03;28.70;85.20
17364;DHT22;8799;43.594;13.526;2023-06-22T14:47:31;28.70;85.20
17364;DHT22;8799;43.594;13.526;2023-06-22T14:50:03;28.70;85.20
17364;DHT22;8799;43.594;13.526;2023-06-22T14:52:31;28.70;85.40
17364;DHT22;8799;43.594;13.526;2023-06-22T14:54:59;28.70;85.40
17364;DHT22;8799;43.594;13.526;2023-06-22T14:57:27;28.70;85.40
17364;DHT22;8799;43.594;13.526;2023-06-22T14:59:57;28.60;85.10
17364;DHT22;8799;43.594;13.526;2023-06-22T15:02:25;28.60;85.00
17364;DHT22;8799;43.594;13.526;2023-06-22T15:04:53;28.70;85.10
17364;DHT22;8799;43.594;13.526;2023-06-22T15:07:20;28.70;85.10
17364;DHT22;8799;43.594;13.526;2023-06-22T15:09:47;28.70;84.80
17364;DHT22;8799;43.594;13.526;2023-06-22T15:12:15;28.70;84.80
17364;DHT22;8799;43.594;13.526;2023-06-22T15:14:43;28.70;84.80
17364;DHT22;8799;43.594;13.526;2023-06-22T15:17:13;28.70;85.30
17364;DHT22;8799;43.594;13.526;2023-06-22T15:19:40;28.80;85.40
17364;DHT22;8799;43.594;13.526;2023-06-22T15:22:08;28.80;84.80
17364;DHT22;8799;43.594;13.526;2023-06-22T15:24:37;28.80;84.60
17364;DHT22;8799;43.594;13.526;2023-06-22T15:27:06;28.90;84.60
17364;DHT22;8799;43.594;13.526;2023-06-22T15:29:34;28.90;84.40
17364;DHT22;8799;43.594;13.526;2023-06-22T15:32:02;28.90;84.10
17364;DHT22;8799;43.594;13.526;2023-06-22T15:34:32;28.90;82.20
17364;DHT22;8799;43.594;13.526;2023-06-22T15:37:00;28.90;80.60
17364;DHT22;8799;43.594;13.526;2023-06-22T15:39:29;28.90;79.10
17364;DHT22;8799;43.594;13.526;2023-06-22T15:41:57;29.00;79.20